createdAt,value
2016-06-12T00:00:01.120Z,0
2016-06-12T00:01:01.139Z,0
2016-06-12T00:02:01.142Z,0
2016-06-12T00:03:01.160Z,0
2016-06-12T00:04:01.163Z,0
2016-06-12T00:05:01.041Z,0
2016-06-12T00:06:01.044Z,0
2016-06-12T00:07:01.205Z,0
2016-06-12T00:08:01.208Z,0
2016-06-12T00:09:01.251Z,0
2016-06-12T00:10:01.293Z,0
2016-06-12T00:11:01.350Z,0
2016-06-12T00:12:01.391Z,0
2016-06-12T00:13:01.432Z,0
2016-06-12T00:14:01.488Z,0
2016-06-12T00:15:01.489Z,0
2016-06-12T00:16:01.522Z,0
2016-06-12T00:17:01.538Z,0
2016-06-12T00:18:01.571Z,0
2016-06-12T00:19:01.582Z,0
2016-06-12T00:20:02.590Z,0
2016-06-12T00:21:01.613Z,0
2016-06-12T00:22:01.637Z,0
2016-06-12T00:23:01.676Z,0
2016-06-12T00:24:01.667Z,0
2016-06-12T00:25:01.687Z,0
2016-06-12T00:26:01.536Z,0
2016-06-12T00:27:01.729Z,0
2016-06-12T00:28:01.718Z,0
2016-06-12T00:29:01.722Z,0
2016-06-12T00:30:01.757Z,0
2016-06-12T00:31:01.745Z,0
2016-06-12T00:32:01.764Z,0
2016-06-12T00:33:01.767Z,0
2016-06-12T00:34:01.787Z,0
2016-06-12T00:35:02.805Z,0
2016-06-12T00:36:01.793Z,0
2016-06-12T00:37:01.812Z,0
2016-06-12T00:38:01.831Z,0
2016-06-12T00:39:01.693Z,0
2016-06-12T00:40:01.854Z,0
2016-06-12T00:41:01.856Z,0
2016-06-12T00:42:01.875Z,0
2016-06-12T00:43:01.893Z,0
2016-06-12T00:44:02.053Z,0
2016-06-12T00:45:01.900Z,0
2016-06-12T00:46:01.919Z,0
2016-06-12T00:47:01.922Z,0
2016-06-12T00:48:01.940Z,0
2016-06-12T00:49:01.943Z,0
2016-06-12T00:50:03.244Z,0
2016-06-12T00:51:02.074Z,0
2016-06-12T00:52:01.969Z,0
2016-06-12T00:53:01.986Z,0
2016-06-12T00:54:01.850Z,0
2016-06-12T00:55:02.009Z,0
2016-06-12T00:56:02.011Z,0
2016-06-12T00:57:02.031Z,0
2016-06-12T00:58:02.049Z,0
2016-06-12T00:59:02.052Z,0
2016-06-12T01:00:02.071Z,0
2016-06-12T01:01:02.074Z,0
2016-06-12T01:02:02.077Z,0
2016-06-12T01:03:02.096Z,0
2016-06-12T01:04:02.115Z,0
2016-06-12T01:05:02.320Z,0
2016-06-12T01:06:02.323Z,0
2016-06-12T01:07:02.139Z,0
2016-06-12T01:08:02.143Z,0
2016-06-12T01:09:02.160Z,0
2016-06-12T01:10:02.164Z,0
2016-06-12T01:11:02.183Z,0
2016-06-12T01:12:02.185Z,0
2016-06-12T01:13:02.220Z,0
2016-06-12T01:14:02.223Z,0
2016-06-12T01:15:02.242Z,0
2016-06-12T01:16:02.230Z,0
2016-06-12T01:17:02.248Z,0
2016-06-12T01:18:02.252Z,0
2016-06-12T01:19:02.270Z,0
2016-06-12T01:20:02.007Z,0
2016-06-12T01:21:02.619Z,0
2016-06-12T01:22:02.294Z,0
2016-06-12T01:23:02.314Z,0
2016-06-12T01:24:02.317Z,0
2016-06-12T01:25:02.335Z,0
2016-06-12T01:26:02.338Z,0
2016-06-12T01:27:02.201Z,0
2016-06-12T01:28:02.360Z,0
2016-06-12T01:29:02.394Z,0
2016-06-12T01:30:02.397Z,0
2016-06-12T01:31:02.401Z,0
2016-06-12T01:32:02.403Z,0
2016-06-12T01:33:02.422Z,0
2016-06-12T01:34:02.285Z,0
2016-06-12T01:35:03.616Z,0
2016-06-12T01:36:02.713Z,0
2016-06-12T01:37:02.451Z,0
2016-06-12T01:38:02.469Z,0
2016-06-12T01:39:02.488Z,0
2016-06-12T01:40:02.491Z,0
2016-06-12T01:41:02.510Z,0
2016-06-12T01:42:02.512Z,0
2016-06-12T01:43:02.515Z,0
2016-06-12T01:44:02.581Z,0
2016-06-12T01:45:02.538Z,0
2016-06-12T01:46:02.557Z,0
2016-06-12T01:47:02.559Z,0
2016-06-12T01:48:02.578Z,0
2016-06-12T01:49:02.784Z,0
2016-06-12T01:50:02.850Z,0
2016-06-12T01:51:03.400Z,0
2016-06-12T01:52:02.622Z,0
2016-06-12T01:53:02.625Z,0
2016-06-12T01:54:02.628Z,0
2016-06-12T01:55:02.647Z,0
2016-06-12T01:56:02.649Z,0
2016-06-12T01:57:02.668Z,0
2016-06-12T01:58:02.672Z,0
2016-06-12T01:59:02.689Z,0
2016-06-12T02:00:02.709Z,0
2016-06-12T02:01:02.712Z,0
2016-06-12T02:02:02.715Z,0
2016-06-12T02:03:02.734Z,0
2016-06-12T02:04:02.752Z,0
2016-06-12T02:05:03.333Z,0
2016-06-12T02:06:03.415Z,0
2016-06-12T02:07:02.777Z,0
2016-06-12T02:08:02.796Z,0
2016-06-12T02:09:02.800Z,0
2016-06-12T02:10:02.803Z,0
2016-06-12T02:11:02.821Z,0
2016-06-12T02:12:02.824Z,0
2016-06-12T02:13:02.858Z,0
2016-06-12T02:14:02.861Z,0
2016-06-12T02:15:02.708Z,0
2016-06-12T02:16:02.867Z,0
2016-06-12T02:17:02.870Z,0
2016-06-12T02:18:02.905Z,0
2016-06-12T02:19:02.908Z,0
2016-06-12T02:20:03.176Z,0
2016-06-12T02:21:03.054Z,0
2016-06-12T02:22:03.215Z,0
2016-06-12T02:23:02.967Z,0
2016-06-12T02:24:02.954Z,0
2016-06-12T02:25:02.957Z,0
2016-06-12T02:26:02.977Z,0
2016-06-12T02:27:02.995Z,0
2016-06-12T02:28:03.013Z,0
2016-06-12T02:29:03.017Z,0
2016-06-12T02:30:03.020Z,0
2016-06-12T02:31:03.038Z,0
2016-06-12T02:32:03.057Z,0
2016-06-12T02:33:03.077Z,0
2016-06-12T02:34:03.110Z,0
2016-06-12T02:35:03.082Z,0
2016-06-12T02:36:03.460Z,0
2016-06-12T02:37:03.103Z,0
2016-06-12T02:38:03.107Z,0
2016-06-12T02:39:02.970Z,0
2016-06-12T02:40:03.160Z,0
2016-06-12T02:41:03.131Z,0
2016-06-12T02:42:03.151Z,0
2016-06-12T02:43:03.013Z,0
2016-06-12T02:44:03.172Z,0
2016-06-12T02:45:03.175Z,0
2016-06-12T02:46:03.194Z,0
2016-06-12T02:47:03.056Z,0
2016-06-12T02:48:03.215Z,0
2016-06-12T02:49:03.218Z,0
2016-06-12T02:50:03.753Z,0
2016-06-12T02:51:03.787Z,0
2016-06-12T02:52:03.260Z,0
2016-06-12T02:53:03.277Z,0
2016-06-12T02:54:03.280Z,0
2016-06-12T02:55:03.284Z,0
2016-06-12T02:56:03.303Z,0
2016-06-12T02:57:03.321Z,0
2016-06-12T02:58:03.325Z,0
2016-06-12T02:59:03.328Z,0
2016-06-12T03:00:03.346Z,0
2016-06-12T03:01:03.349Z,0
2016-06-12T03:02:03.368Z,0
2016-06-12T03:03:03.371Z,0
2016-06-12T03:04:03.389Z,0
2016-06-12T03:05:03.393Z,0
2016-06-12T03:06:04.286Z,0
2016-06-12T03:07:03.414Z,0
2016-06-12T03:08:03.418Z,0
2016-06-12T03:09:03.437Z,0
2016-06-12T03:10:03.439Z,0
2016-06-12T03:11:03.458Z,0
2016-06-12T03:12:03.461Z,0
2016-06-12T03:13:03.480Z,0
2016-06-12T03:14:03.483Z,0
2016-06-12T03:15:03.502Z,0
2016-06-12T03:16:03.537Z,0
2016-06-12T03:17:03.523Z,0
2016-06-12T03:18:03.542Z,0
2016-06-12T03:19:03.560Z,0
2016-06-12T03:20:03.563Z,0
2016-06-12T03:21:04.021Z,0
2016-06-12T03:22:03.585Z,0
2016-06-12T03:23:03.588Z,0
2016-06-12T03:24:03.608Z,0
2016-06-12T03:25:03.595Z,0
2016-06-12T03:26:03.629Z,0
2016-06-12T03:27:03.632Z,0
2016-06-12T03:28:03.635Z,0
2016-06-12T03:29:03.654Z,0
2016-06-12T03:30:03.658Z,0
2016-06-12T03:31:03.676Z,0
2016-06-12T03:32:03.679Z,0
2016-06-12T03:33:03.542Z,0
2016-06-12T03:34:03.701Z,0
2016-06-12T03:35:03.704Z,0
2016-06-12T03:36:04.097Z,0
2016-06-12T03:37:03.726Z,0
2016-06-12T03:38:03.744Z,0
2016-06-12T03:39:03.747Z,0
2016-06-12T03:40:03.766Z,0
2016-06-12T03:41:03.785Z,0
2016-06-12T03:42:03.789Z,0
2016-06-12T03:43:03.806Z,4
2016-06-12T03:44:03.872Z,4
2016-06-12T03:45:03.844Z,4
2016-06-12T03:46:03.831Z,4
2016-06-12T03:47:03.679Z,4
2016-06-12T03:48:03.854Z,4
2016-06-12T03:49:03.871Z,4
2016-06-12T03:50:03.875Z,4
2016-06-12T03:51:03.894Z,0
2016-06-12T03:52:03.897Z,0
2016-06-12T03:53:03.900Z,0
2016-06-12T03:54:03.918Z,0
2016-06-12T03:55:03.938Z,0
2016-06-12T03:56:03.956Z,0
2016-06-12T03:57:03.943Z,0
2016-06-12T03:58:03.805Z,0
2016-06-12T03:59:03.808Z,0
2016-06-12T04:00:03.984Z,4
2016-06-12T04:01:03.987Z,4
2016-06-12T04:02:04.005Z,4
2016-06-12T04:03:04.024Z,4
2016-06-12T04:04:04.028Z,4
2016-06-12T04:05:04.046Z,4
2016-06-12T04:06:04.346Z,4
2016-06-12T04:07:04.052Z,4
2016-06-12T04:08:04.071Z,4
2016-06-12T04:09:04.089Z,4
2016-06-12T04:10:04.092Z,4
2016-06-12T04:11:03.939Z,4
2016-06-12T04:12:03.942Z,4
2016-06-12T04:13:04.117Z,4
2016-06-12T04:14:04.137Z,4
2016-06-12T04:15:04.139Z,4
2016-06-12T04:16:04.143Z,4
2016-06-12T04:17:04.161Z,4
2016-06-12T04:18:04.164Z,4
2016-06-12T04:19:04.182Z,4
2016-06-12T04:20:04.202Z,4
2016-06-12T04:21:04.220Z,4
2016-06-12T04:22:04.208Z,4
2016-06-12T04:23:04.226Z,0
2016-06-12T04:24:04.245Z,0
2016-06-12T04:25:04.249Z,0
2016-06-12T04:26:04.110Z,0
2016-06-12T04:27:04.269Z,0
2016-06-12T04:28:04.288Z,0
2016-06-12T04:29:04.292Z,0
2016-06-12T04:30:04.295Z,0
2016-06-12T04:31:04.314Z,0
2016-06-12T04:32:04.316Z,0
2016-06-12T04:33:04.335Z,0
2016-06-12T04:34:04.338Z,0
2016-06-12T04:35:04.341Z,0
2016-06-12T04:36:04.360Z,0
2016-06-12T04:37:04.379Z,0
2016-06-12T04:38:04.383Z,0
2016-06-12T04:39:04.260Z,0
2016-06-12T04:40:04.419Z,0
2016-06-12T04:41:04.267Z,0
2016-06-12T04:42:04.426Z,0
2016-06-12T04:43:04.288Z,0
2016-06-12T04:44:04.447Z,0
2016-06-12T04:45:04.466Z,0
2016-06-12T04:46:04.485Z,0
2016-06-12T04:47:04.488Z,0
2016-06-12T04:48:04.334Z,4
2016-06-12T04:49:04.494Z,4
2016-06-12T04:50:04.356Z,4
2016-06-12T04:51:05.187Z,4
2016-06-12T04:52:04.988Z,4
2016-06-12T04:53:04.396Z,4
2016-06-12T04:54:04.571Z,4
2016-06-12T04:55:04.560Z,4
2016-06-12T04:56:04.578Z,8
2016-06-12T04:57:04.580Z,8
2016-06-12T04:58:04.600Z,8
2016-06-12T04:59:04.603Z,8
2016-06-12T05:00:04.621Z,8
2016-06-12T05:01:04.624Z,4
2016-06-12T05:02:04.487Z,4
2016-06-12T05:03:04.662Z,4
2016-06-12T05:04:04.665Z,4
2016-06-12T05:05:04.668Z,8
2016-06-12T05:06:05.062Z,8
2016-06-12T05:07:04.690Z,8
2016-06-12T05:08:04.692Z,4
2016-06-12T05:09:04.711Z,4
2016-06-12T05:10:04.715Z,8
2016-06-12T05:11:04.734Z,8
2016-06-12T05:12:04.736Z,8
2016-06-12T05:13:04.755Z,8
2016-06-12T05:14:04.758Z,8
2016-06-12T05:15:04.777Z,8
2016-06-12T05:16:04.780Z,8
2016-06-12T05:17:04.798Z,4
2016-06-12T05:18:04.661Z,4
2016-06-12T05:19:04.821Z,4
2016-06-12T05:20:04.854Z,8
2016-06-12T05:21:05.185Z,8
2016-06-12T05:22:05.158Z,8
2016-06-12T05:23:04.864Z,4
2016-06-12T05:24:04.882Z,4
2016-06-12T05:25:04.886Z,4
2016-06-12T05:26:04.904Z,4
2016-06-12T05:27:04.751Z,8
2016-06-12T05:28:04.911Z,8
2016-06-12T05:29:04.773Z,8
2016-06-12T05:30:04.932Z,8
2016-06-12T05:31:04.952Z,4
2016-06-12T05:32:04.657Z,4
2016-06-12T05:33:04.973Z,4
2016-06-12T05:34:04.975Z,8
2016-06-12T05:35:04.979Z,4
2016-06-12T05:36:05.497Z,4
2016-06-12T05:37:04.892Z,4
2016-06-12T05:38:05.020Z,4
2016-06-12T05:39:05.023Z,8
2016-06-12T05:40:05.057Z,4
2016-06-12T05:41:05.044Z,4
2016-06-12T05:42:04.907Z,8
2016-06-12T05:43:05.066Z,8
2016-06-12T05:44:05.147Z,4
2016-06-12T05:45:05.103Z,8
2016-06-12T05:46:05.122Z,8
2016-06-12T05:47:05.156Z,8
2016-06-12T05:48:04.987Z,8
2016-06-12T05:49:05.131Z,8
2016-06-12T05:50:05.149Z,8
2016-06-12T05:51:05.169Z,12
2016-06-12T05:52:05.235Z,8
2016-06-12T05:53:05.175Z,8
2016-06-12T05:54:05.037Z,8
2016-06-12T05:55:05.056Z,8
2016-06-12T05:56:05.059Z,8
2016-06-12T05:57:05.218Z,8
2016-06-12T05:58:05.238Z,8
2016-06-12T05:59:05.099Z,8
2016-06-12T06:00:05.259Z,12
2016-06-12T06:01:05.263Z,12
2016-06-12T06:02:05.140Z,8
2016-06-12T06:03:05.300Z,8
2016-06-12T06:04:05.286Z,8
2016-06-12T06:05:05.306Z,8
2016-06-12T06:06:05.167Z,8
2016-06-12T06:07:05.562Z,8
2016-06-12T06:08:05.346Z,8
2016-06-12T06:09:05.365Z,8
2016-06-12T06:10:05.352Z,8
2016-06-12T06:11:05.371Z,8
2016-06-12T06:12:05.374Z,12
2016-06-12T06:13:05.392Z,8
2016-06-12T06:14:05.411Z,8
2016-06-12T06:15:05.415Z,8
2016-06-12T06:16:05.417Z,8
2016-06-12T06:17:05.279Z,8
2016-06-12T06:18:05.471Z,8
2016-06-12T06:19:05.458Z,8
2016-06-12T06:20:05.477Z,8
2016-06-12T06:21:05.494Z,12
2016-06-12T06:22:05.467Z,12
2016-06-12T06:23:05.501Z,12
2016-06-12T06:24:05.520Z,12
2016-06-12T06:25:05.523Z,12
2016-06-12T06:26:05.543Z,16
2016-06-12T06:27:05.545Z,16
2016-06-12T06:28:05.548Z,16
2016-06-12T06:29:05.567Z,16
2016-06-12T06:30:05.570Z,16
2016-06-12T06:31:05.589Z,20
2016-06-12T06:32:05.591Z,20
2016-06-12T06:33:05.611Z,24
2016-06-12T06:34:05.614Z,20
2016-06-12T06:35:05.631Z,20
2016-06-12T06:36:05.745Z,24
2016-06-12T06:37:06.201Z,24
2016-06-12T06:38:05.657Z,24
2016-06-12T06:39:05.519Z,24
2016-06-12T06:40:05.539Z,24
2016-06-12T06:41:05.682Z,28
2016-06-12T06:42:05.716Z,28
2016-06-12T06:43:05.563Z,28
2016-06-12T06:44:05.565Z,24
2016-06-12T06:45:05.726Z,28
2016-06-12T06:46:05.744Z,24
2016-06-12T06:47:05.763Z,24
2016-06-12T06:48:05.766Z,24
2016-06-12T06:49:05.768Z,24
2016-06-12T06:50:05.803Z,20
2016-06-12T06:51:05.666Z,20
2016-06-12T06:52:05.965Z,24
2016-06-12T06:53:05.812Z,24
2016-06-12T06:54:05.846Z,24
2016-06-12T06:55:05.834Z,24
2016-06-12T06:56:05.852Z,24
2016-06-12T06:57:05.872Z,20
2016-06-12T06:58:05.875Z,20
2016-06-12T06:59:05.893Z,24
2016-06-12T07:00:05.897Z,24
2016-06-12T07:01:05.931Z,24
2016-06-12T07:02:05.918Z,20
2016-06-12T07:03:05.921Z,24
2016-06-12T07:04:05.940Z,24
2016-06-12T07:05:05.974Z,24
2016-06-12T07:06:05.977Z,28
2016-06-12T07:07:06.794Z,24
2016-06-12T07:08:05.984Z,24
2016-06-12T07:09:05.987Z,28
2016-06-12T07:10:06.005Z,24
2016-06-12T07:11:06.024Z,24
2016-06-12T07:12:05.871Z,24
2016-06-12T07:13:06.046Z,24
2016-06-12T07:14:06.048Z,28
2016-06-12T07:15:05.911Z,28
2016-06-12T07:16:06.055Z,28
2016-06-12T07:17:06.074Z,24
2016-06-12T07:18:06.092Z,24
2016-06-12T07:19:06.095Z,28
2016-06-12T07:20:06.098Z,24
2016-06-12T07:21:06.133Z,24
2016-06-12T07:22:06.432Z,24
2016-06-12T07:23:06.140Z,24
2016-06-12T07:24:06.158Z,20
2016-06-12T07:25:06.160Z,24
2016-06-12T07:26:06.180Z,20
2016-06-12T07:27:06.182Z,16
2016-06-12T07:28:06.044Z,16
2016-06-12T07:29:06.204Z,12
2016-06-12T07:30:06.223Z,16
2016-06-12T07:31:06.226Z,12
2016-06-12T07:32:06.245Z,12
2016-06-12T07:33:06.248Z,8
2016-06-12T07:34:06.251Z,8
2016-06-12T07:35:06.269Z,8
2016-06-12T07:36:06.272Z,8
2016-06-12T07:37:07.103Z,8
2016-06-12T07:38:06.311Z,8
2016-06-12T07:39:06.314Z,8
2016-06-12T07:40:06.332Z,12
2016-06-12T07:41:06.335Z,12
2016-06-12T07:42:06.354Z,8
2016-06-12T07:43:06.357Z,12
2016-06-12T07:44:06.391Z,12
2016-06-12T07:45:06.378Z,12
2016-06-12T07:46:06.397Z,12
2016-06-12T07:47:06.416Z,12
2016-06-12T07:48:06.419Z,8
2016-06-12T07:49:06.422Z,8
2016-06-12T07:50:06.440Z,8
2016-06-12T07:51:06.443Z,8
2016-06-12T07:52:06.306Z,8
2016-06-12T07:53:06.466Z,8
2016-06-12T07:54:06.485Z,8
2016-06-12T07:55:06.488Z,8
2016-06-12T07:56:06.506Z,8
2016-06-12T07:57:06.509Z,12
2016-06-12T07:58:06.528Z,8
2016-06-12T07:59:06.531Z,12
2016-06-12T08:00:06.534Z,12
2016-06-12T08:01:06.568Z,16
2016-06-12T08:02:06.556Z,12
2016-06-12T08:03:06.574Z,12
2016-06-12T08:04:06.594Z,12
2016-06-12T08:05:06.596Z,16
2016-06-12T08:06:06.614Z,16
2016-06-12T08:07:06.321Z,12
2016-06-12T08:08:06.636Z,16
2016-06-12T08:09:06.656Z,20
2016-06-12T08:10:06.659Z,16
2016-06-12T08:11:06.677Z,20
2016-06-12T08:12:06.665Z,20
2016-06-12T08:13:06.683Z,20
2016-06-12T08:14:06.717Z,16
2016-06-12T08:15:06.705Z,16
2016-06-12T08:16:06.708Z,16
2016-06-12T08:17:06.726Z,16
2016-06-12T08:18:06.729Z,16
2016-06-12T08:19:06.765Z,16
2016-06-12T08:20:06.610Z,12
2016-06-12T08:21:06.771Z,12
2016-06-12T08:22:06.789Z,16
2016-06-12T08:23:06.792Z,12
2016-06-12T08:24:06.811Z,12
2016-06-12T08:25:06.814Z,12
2016-06-12T08:26:06.849Z,12
2016-06-12T08:27:06.851Z,16
2016-06-12T08:28:06.839Z,16
2016-06-12T08:29:06.874Z,20
2016-06-12T08:30:06.876Z,16
2016-06-12T08:31:06.880Z,20
2016-06-12T08:32:06.882Z,16
2016-06-12T08:33:06.900Z,16
2016-06-12T08:34:06.920Z,16
2016-06-12T08:35:06.922Z,16
2016-06-12T08:36:06.785Z,16
2016-06-12T08:37:07.445Z,16
2016-06-12T08:38:06.948Z,16
2016-06-12T08:39:06.810Z,20
2016-06-12T08:40:06.985Z,16
2016-06-12T08:41:06.988Z,16
2016-06-12T08:42:07.008Z,20
2016-06-12T08:43:07.011Z,16
2016-06-12T08:44:07.028Z,16
2016-06-12T08:45:07.142Z,16
2016-06-12T08:46:07.050Z,16
2016-06-12T08:47:06.897Z,16
2016-06-12T08:48:07.072Z,16
2016-06-12T08:49:07.075Z,16
2016-06-12T08:50:06.938Z,20
2016-06-12T08:51:06.941Z,24
2016-06-12T08:52:07.350Z,24
2016-06-12T08:53:07.353Z,24
2016-06-12T08:54:07.138Z,24
2016-06-12T08:55:07.141Z,20
2016-06-12T08:56:07.159Z,24
2016-06-12T08:57:07.163Z,20
2016-06-12T08:58:07.166Z,20
2016-06-12T08:59:07.200Z,16
2016-06-12T09:00:07.202Z,16
2016-06-12T09:01:07.222Z,12
2016-06-12T09:02:07.209Z,12
2016-06-12T09:03:07.087Z,12
2016-06-12T09:04:07.231Z,8
2016-06-12T09:05:07.249Z,8
2016-06-12T09:06:07.284Z,12
2016-06-12T09:07:07.896Z,16
2016-06-12T09:08:07.275Z,20
2016-06-12T09:09:07.136Z,20
2016-06-12T09:10:07.312Z,20
2016-06-12T09:11:07.315Z,20
2016-06-12T09:12:07.317Z,20
2016-06-12T09:13:07.336Z,20
2016-06-12T09:14:07.200Z,24
2016-06-12T09:15:07.243Z,24
2016-06-12T09:16:07.459Z,20
2016-06-12T09:17:07.503Z,24
2016-06-12T09:18:07.547Z,24
2016-06-12T09:19:07.450Z,24
2016-06-12T09:20:07.624Z,24
2016-06-12T09:21:07.672Z,28
2016-06-12T09:22:08.237Z,28
2016-06-12T09:23:07.567Z,28
2016-06-12T09:24:07.725Z,28
2016-06-12T09:25:07.764Z,28
2016-06-12T09:26:07.757Z,24
2016-06-12T09:27:07.624Z,28
2016-06-12T09:28:07.789Z,24
2016-06-12T09:29:07.813Z,28
2016-06-12T09:30:07.818Z,28
2016-06-12T09:31:07.838Z,28
2016-06-12T09:32:07.859Z,28
2016-06-12T09:33:07.863Z,28
2016-06-12T09:34:07.884Z,32
2016-06-12T09:35:07.888Z,32
2016-06-12T09:36:07.907Z,32
2016-06-12T09:37:07.974Z,36
2016-06-12T09:38:08.727Z,32
2016-06-12T09:39:07.951Z,32
2016-06-12T09:40:07.954Z,36
2016-06-12T09:41:07.957Z,36
2016-06-12T09:42:07.976Z,36
2016-06-12T09:43:07.995Z,44
2016-06-12T09:44:07.999Z,44
2016-06-12T09:45:08.205Z,44
2016-06-12T09:46:08.021Z,44
2016-06-12T09:47:08.024Z,36
2016-06-12T09:48:07.886Z,36
2016-06-12T09:49:08.045Z,40
2016-06-12T09:50:08.064Z,16
2016-06-12T09:51:08.083Z,24
2016-06-12T09:52:07.960Z,36
2016-06-12T09:53:08.838Z,44
2016-06-12T09:54:08.108Z,24
2016-06-12T09:55:08.111Z,36
2016-06-12T09:56:08.144Z,40
2016-06-12T09:57:08.147Z,40
2016-06-12T09:58:08.151Z,44
2016-06-12T09:59:08.154Z,36
2016-06-12T10:00:08.173Z,32
2016-06-12T10:01:08.176Z,28
2016-06-12T10:02:08.195Z,44
2016-06-12T10:03:08.198Z,48
2016-06-12T10:04:08.216Z,40
2016-06-12T10:05:08.219Z,40
2016-06-12T10:06:08.239Z,32
2016-06-12T10:07:08.678Z,28
2016-06-12T10:08:08.916Z,24
2016-06-12T10:09:08.263Z,16
2016-06-12T10:10:08.298Z,12
2016-06-12T10:11:08.300Z,12
2016-06-12T10:12:08.304Z,12
2016-06-12T10:13:08.307Z,12
2016-06-12T10:14:08.325Z,16
2016-06-12T10:15:08.188Z,20
2016-06-12T10:16:08.378Z,20
2016-06-12T10:17:08.366Z,24
2016-06-12T10:18:08.384Z,32
2016-06-12T10:19:08.388Z,36
2016-06-12T10:20:08.406Z,36
2016-06-12T10:21:08.393Z,32
2016-06-12T10:22:08.413Z,36
2016-06-12T10:23:08.431Z,24
2016-06-12T10:24:08.434Z,24
2016-06-12T10:25:08.297Z,28
2016-06-12T10:26:08.456Z,28
2016-06-12T10:27:08.318Z,32
2016-06-12T10:28:08.321Z,32
2016-06-12T10:29:08.496Z,52
2016-06-12T10:30:14.046Z,32
2016-06-12T10:31:08.519Z,32
2016-06-12T10:32:08.506Z,28
2016-06-12T10:33:08.541Z,28
2016-06-12T10:34:08.386Z,28
2016-06-12T10:35:08.562Z,32
2016-06-12T10:36:08.565Z,32
2016-06-12T10:37:08.568Z,32
2016-06-12T10:38:08.602Z,36
2016-06-12T10:39:08.590Z,32
2016-06-12T10:40:08.452Z,24
2016-06-12T10:41:08.611Z,20
2016-06-12T10:42:08.630Z,20
2016-06-12T10:43:08.649Z,20
2016-06-12T10:44:08.652Z,24
2016-06-12T10:45:08.702Z,24
2016-06-12T10:46:08.673Z,24
2016-06-12T10:47:08.692Z,28
2016-06-12T10:48:08.712Z,28
2016-06-12T10:49:08.715Z,32
2016-06-12T10:50:08.717Z,28
2016-06-12T10:51:08.721Z,28
2016-06-12T10:52:08.739Z,28
2016-06-12T10:53:08.601Z,28
2016-06-12T10:54:08.761Z,32
2016-06-12T10:55:08.779Z,32
2016-06-12T10:56:08.782Z,36
2016-06-12T10:57:08.785Z,36
2016-06-12T10:58:08.805Z,40
2016-06-12T10:59:08.666Z,52
2016-06-12T11:00:08.669Z,56
2016-06-12T11:01:08.688Z,44
2016-06-12T11:02:08.848Z,40
2016-06-12T11:03:08.867Z,36
2016-06-12T11:04:08.869Z,36
2016-06-12T11:05:08.873Z,32
2016-06-12T11:06:08.735Z,36
2016-06-12T11:07:08.909Z,36
2016-06-12T11:08:09.132Z,40
2016-06-12T11:09:08.916Z,40
2016-06-12T11:10:08.935Z,32
2016-06-12T11:11:08.938Z,28
2016-06-12T11:12:08.956Z,24
2016-06-12T11:13:08.959Z,24
2016-06-12T11:14:08.979Z,24
2016-06-12T11:15:08.982Z,24
2016-06-12T11:16:09.001Z,24
2016-06-12T11:17:09.035Z,32
2016-06-12T11:18:09.021Z,24
2016-06-12T11:19:08.869Z,28
2016-06-12T11:20:09.044Z,32
2016-06-12T11:21:08.906Z,32
2016-06-12T11:22:09.066Z,36
2016-06-12T11:23:09.115Z,36
2016-06-12T11:24:08.947Z,32
2016-06-12T11:25:09.090Z,32
2016-06-12T11:26:09.140Z,32
2016-06-12T11:27:09.127Z,36
2016-06-12T11:28:09.115Z,40
2016-06-12T11:29:09.150Z,40
2016-06-12T11:30:09.152Z,44
2016-06-12T11:31:09.171Z,48
2016-06-12T11:32:09.175Z,48
2016-06-12T11:33:09.193Z,48
2016-06-12T11:34:09.196Z,48
2016-06-12T11:35:09.199Z,48
2016-06-12T11:36:09.218Z,48
2016-06-12T11:37:09.238Z,44
2016-06-12T11:38:09.209Z,40
2016-06-12T11:39:09.275Z,32
2016-06-12T11:40:09.278Z,28
2016-06-12T11:41:09.264Z,20
2016-06-12T11:42:09.283Z,20
2016-06-12T11:43:09.301Z,20
2016-06-12T11:44:09.304Z,20
2016-06-12T11:45:09.371Z,24
2016-06-12T11:46:09.327Z,24
2016-06-12T11:47:09.189Z,24
2016-06-12T11:48:09.349Z,28
2016-06-12T11:49:09.352Z,28
2016-06-12T11:50:09.230Z,32
2016-06-12T11:51:09.389Z,32
2016-06-12T11:52:09.392Z,36
2016-06-12T11:53:09.583Z,40
2016-06-12T11:54:09.414Z,40
2016-06-12T11:55:09.418Z,40
2016-06-12T11:56:09.280Z,36
2016-06-12T11:57:09.454Z,32
2016-06-12T11:58:09.457Z,36
2016-06-12T11:59:09.476Z,32
2016-06-12T12:00:09.323Z,32
2016-06-12T12:01:09.498Z,36
2016-06-12T12:02:09.501Z,36
2016-06-12T12:03:09.504Z,40
2016-06-12T12:04:09.523Z,60
2016-06-12T12:05:09.541Z,64
2016-06-12T12:06:09.544Z,40
2016-06-12T12:07:09.563Z,32
2016-06-12T12:08:09.441Z,40
2016-06-12T12:09:09.444Z,40
2016-06-12T12:10:09.589Z,36
2016-06-12T12:11:09.606Z,36
2016-06-12T12:12:09.625Z,32
2016-06-12T12:13:09.613Z,32
2016-06-12T12:14:09.647Z,32
2016-06-12T12:15:09.650Z,32
2016-06-12T12:16:09.654Z,36
2016-06-12T12:17:09.656Z,32
2016-06-12T12:18:09.675Z,32
2016-06-12T12:19:09.695Z,36
2016-06-12T12:20:09.713Z,32
2016-06-12T12:21:09.716Z,32
2016-06-12T12:22:09.719Z,36
2016-06-12T12:23:10.113Z,36
2016-06-12T12:24:09.740Z,32
2016-06-12T12:25:09.603Z,32
2016-06-12T12:26:09.778Z,32
2016-06-12T12:27:09.780Z,32
2016-06-12T12:28:09.784Z,32
2016-06-12T12:29:09.803Z,32
2016-06-12T12:30:09.806Z,32
2016-06-12T12:31:09.825Z,32
2016-06-12T12:32:09.827Z,36
2016-06-12T12:33:09.675Z,36
2016-06-12T12:34:09.850Z,40
2016-06-12T12:35:09.868Z,40
2016-06-12T12:36:09.871Z,36
2016-06-12T12:37:09.889Z,36
2016-06-12T12:38:10.408Z,36
2016-06-12T12:39:09.912Z,36
2016-06-12T12:40:09.915Z,32
2016-06-12T12:41:09.933Z,36
2016-06-12T12:42:09.952Z,36
2016-06-12T12:43:09.955Z,32
2016-06-12T12:44:09.975Z,32
2016-06-12T12:45:09.836Z,32
2016-06-12T12:46:09.995Z,28
2016-06-12T12:47:09.998Z,24
2016-06-12T12:48:10.001Z,24
2016-06-12T12:49:10.021Z,24
2016-06-12T12:50:10.040Z,24
2016-06-12T12:51:10.043Z,24
2016-06-12T12:52:10.061Z,28
2016-06-12T12:53:10.549Z,32
2016-06-12T12:54:10.067Z,36
2016-06-12T12:55:10.086Z,40
2016-06-12T12:56:10.105Z,40
2016-06-12T12:57:10.108Z,48
2016-06-12T12:58:10.126Z,44
2016-06-12T12:59:10.130Z,36
2016-06-12T13:00:10.132Z,32
2016-06-12T13:01:10.152Z,32
2016-06-12T13:02:10.170Z,36
2016-06-12T13:03:10.188Z,40
2016-06-12T13:04:10.191Z,28
2016-06-12T13:05:10.195Z,40
2016-06-12T13:06:10.197Z,36
2016-06-12T13:07:10.217Z,32
2016-06-12T13:08:10.688Z,44
2016-06-12T13:09:10.238Z,32
2016-06-12T13:10:10.101Z,24
2016-06-12T13:11:10.261Z,24
2016-06-12T13:12:10.279Z,28
2016-06-12T13:13:10.297Z,24
2016-06-12T13:14:10.300Z,24
2016-06-12T13:15:10.303Z,20
2016-06-12T13:16:10.166Z,16
2016-06-12T13:17:10.341Z,16
2016-06-12T13:18:10.344Z,12
2016-06-12T13:19:10.363Z,12
2016-06-12T13:20:10.382Z,8
2016-06-12T13:21:10.400Z,8
2016-06-12T13:22:10.388Z,8
2016-06-12T13:23:10.891Z,8
2016-06-12T13:24:10.645Z,8
2016-06-12T13:25:10.412Z,8
2016-06-12T13:26:10.431Z,12
2016-06-12T13:27:10.435Z,12
2016-06-12T13:28:10.296Z,12
2016-06-12T13:29:10.456Z,12
2016-06-12T13:30:10.475Z,12
2016-06-12T13:31:10.493Z,12
2016-06-12T13:32:10.496Z,16
2016-06-12T13:33:10.531Z,12
2016-06-12T13:34:10.518Z,12
2016-06-12T13:35:10.536Z,16
2016-06-12T13:36:10.540Z,16
2016-06-12T13:37:10.402Z,16
2016-06-12T13:38:11.344Z,16
2016-06-12T13:39:10.956Z,16
2016-06-12T13:40:10.583Z,16
2016-06-12T13:41:10.602Z,12
2016-06-12T13:42:10.605Z,16
2016-06-12T13:43:10.624Z,12
2016-06-12T13:44:10.628Z,8
2016-06-12T13:45:10.943Z,12
2016-06-12T13:46:10.493Z,12
2016-06-12T13:47:10.668Z,16
2016-06-12T13:48:10.670Z,24
2016-06-12T13:49:10.689Z,28
2016-06-12T13:50:10.692Z,32
2016-06-12T13:51:10.712Z,36
2016-06-12T13:52:10.714Z,36
2016-06-12T13:53:11.998Z,36
2016-06-12T13:54:10.987Z,36
2016-06-12T13:55:10.755Z,40
2016-06-12T13:56:10.757Z,40
2016-06-12T13:57:10.777Z,52
2016-06-12T13:58:10.780Z,52
2016-06-12T13:59:10.799Z,52
2016-06-12T14:00:10.817Z,48
2016-06-12T14:01:10.820Z,56
2016-06-12T14:02:10.839Z,44
2016-06-12T14:03:10.683Z,48
2016-06-12T14:04:10.860Z,48
2016-06-12T14:05:10.720Z,48
2016-06-12T14:06:10.723Z,48
2016-06-12T14:07:10.882Z,48
2016-06-12T14:08:11.326Z,44
2016-06-12T14:09:11.470Z,40
2016-06-12T14:10:10.923Z,40
2016-06-12T14:11:10.925Z,48
2016-06-12T14:12:10.803Z,52
2016-06-12T14:13:10.963Z,52
2016-06-12T14:14:10.795Z,56
2016-06-12T14:15:10.970Z,52
2016-06-12T14:16:10.988Z,52
2016-06-12T14:17:11.007Z,52
2016-06-12T14:18:11.010Z,40
2016-06-12T14:19:11.013Z,48
2016-06-12T14:20:11.031Z,44
2016-06-12T14:21:11.050Z,40
2016-06-12T14:22:11.053Z,40
2016-06-12T14:23:10.603Z,44
2016-06-12T14:24:10.919Z,56
2016-06-12T14:25:11.093Z,40
2016-06-12T14:26:11.096Z,44
2016-06-12T14:27:11.147Z,44
2016-06-12T14:28:11.119Z,40
2016-06-12T14:29:11.122Z,40
2016-06-12T14:30:11.140Z,36